< < Back
Terminal Aerodrome Forecast


Current Version              Previous Versions:   1  2  3  4  5  6  7  8  9  

Terminal Aerodrome Forecast

533
FTUS42 KCHS 221100
TAFSAV
TAF
KSAV 221131Z 2212/2312 04008KT P6SM SKC
     FM221400 05010KT P6SM SCT020 SCT060
     FM230400 07008KT 5SM -RA BR SCT015 BKN025
     FM230700 08006KT 2SM RA BR BKN012=

Latest METAR

518
SAUS80 KWBC 230500 RRB
MTRSAV
METAR KSAV 230453Z 07008KT 10SM -RA OVC070 16/13 A3023 RMK AO2 RAB49
SLP235 LAST AUGMENTED OBSERVATION UNTIL 1100Z P0000 T01560128
402110078


USA.gov is the U.S. government's official web portal to all federal, state and local government web resources and services.